ITCHNA YSSY-YSSY
Flight info
| Callsign | ITCHNA |
|---|---|
| Flight time | 0h 1m |
| Altitude | 1000 |
| Route | YSSY YSSY |
| Aircraft | MM24/L-V/N |
Departure
| Time | 2026-05-07 07:46 |
|---|---|
| Airport | Sydney Kingsford Smith International Airport (YSSY) |
Arrival
| Time | 2026-05-07 07:48 |
|---|---|
| Airport | Sydney Kingsford Smith International Airport (YSSY) |
| Time | Latitude | Longitude | Altitude | Speed | Heading |
|---|---|---|---|---|---|
| 2026-05-07 07:20 | -33.92765 | 151.17495 | 23 ft | 0 kts | 77° |
| 2026-05-07 07:24 | -33.92765 | 151.17496 | -4 ft | 0 kts | 73° |
| 2026-05-07 07:24 | -33.92765 | 151.17497 | -4 ft | 0 kts | 72° |
| 2026-05-07 07:25 | -33.92762 | 151.17507 | 23 ft | 2 kts | 80° |
| 2026-05-07 07:26 | -33.92762 | 151.17509 | 23 ft | 0 kts | 78° |
| 2026-05-07 07:29 | -33.92762 | 151.17510 | 23 ft | 1 kts | 81° |
| 2026-05-07 07:29 | -33.92761 | 151.17512 | 23 ft | 0 kts | 81° |
| 2026-05-07 07:29 | -33.92761 | 151.17515 | 23 ft | 1 kts | 65° |
| 2026-05-07 07:31 | -33.92760 | 151.17516 | 23 ft | 0 kts | 80° |
| 2026-05-07 07:37 | -33.92760 | 151.17520 | 23 ft | 1 kts | 61° |
| 2026-05-07 07:37 | -33.92759 | 151.17520 | 23 ft | 0 kts | 48° |
| 2026-05-07 07:40 | -33.92754 | 151.17521 | 25 ft | 1 kts | 291° |
| 2026-05-07 07:40 | -33.92860 | 151.17429 | 99 ft | 59 kts | 194° |
| 2026-05-07 07:40 | -33.93321 | 151.17669 | 237 ft | 81 kts | 149° |
| 2026-05-07 07:41 | -33.93557 | 151.18403 | 231 ft | 97 kts | 116° |
| 2026-05-07 07:41 | -33.93828 | 151.18983 | 260 ft | 45 kts | 149° |
| 2026-05-07 07:41 | -33.93904 | 151.19112 | 107 ft | 21 kts | 311° |
| 2026-05-07 07:41 | -33.93900 | 151.19081 | 25 ft | 16 kts | 316° |
| 2026-05-07 07:42 | -33.93875 | 151.19091 | 20 ft | 4 kts | 42° |
| 2026-05-07 07:42 | -33.93896 | 151.19092 | 19 ft | 0 kts | 197° |
| 2026-05-07 07:42 | -33.93897 | 151.19092 | 19 ft | 0 kts | 197° |
| 2026-05-07 07:42 | -33.93909 | 151.19090 | 19 ft | 1 kts | 127° |
| 2026-05-07 07:43 | -33.93881 | 151.19069 | 70 ft | 21 kts | 297° |
| 2026-05-07 07:43 | -33.93511 | 151.19001 | 69 ft | 65 kts | 339° |
| 2026-05-07 07:43 | -33.93098 | 151.19364 | 199 ft | 87 kts | 20° |
| 2026-05-07 07:43 | -33.92605 | 151.19727 | 147 ft | 74 kts | 356° |
| 2026-05-07 07:44 | -33.92171 | 151.19710 | 161 ft | 69 kts | 341° |
| 2026-05-07 07:44 | -33.91706 | 151.19717 | 279 ft | 68 kts | 344° |
| 2026-05-07 07:44 | -33.91222 | 151.19867 | 430 ft | 69 kts | 359° |
| 2026-05-07 07:44 | -33.90753 | 151.19801 | 383 ft | 73 kts | 332° |
| 2026-05-07 07:45 | -33.90177 | 151.19858 | 272 ft | 88 kts | 355° |
| 2026-05-07 07:45 | -33.89700 | 151.20046 | 494 ft | 72 kts | 354° |
| 2026-05-07 07:45 | -33.89185 | 151.20127 | 415 ft | 69 kts | 345° |
| 2026-05-07 07:45 | -33.88665 | 151.20294 | 450 ft | 82 kts | 17° |
| 2026-05-07 07:46 | -33.88109 | 151.20473 | 255 ft | 72 kts | 337° |
| 2026-05-07 07:46 | -33.87761 | 151.20626 | 675 ft | 52 kts | 27° |
| 2026-05-07 07:46 | -33.87415 | 151.21136 | 562 ft | 95 kts | 34° |
| 2026-05-07 07:46 | -33.86856 | 151.21488 | 264 ft | 69 kts | 30° |
| 2026-05-07 07:47 | -33.86630 | 151.21678 | 401 ft | 62 kts | 182° |
| 2026-05-07 07:47 | -33.87083 | 151.21897 | 383 ft | 77 kts | 186° |
| 2026-05-07 07:47 | -33.87558 | 151.21893 | 304 ft | 57 kts | 220° |
| 2026-05-07 07:47 | -33.87911 | 151.21818 | 433 ft | 55 kts | 218° |
| 2026-05-07 07:48 | -33.88246 | 151.21680 | 383 ft | 41 kts | 219° |
| 2026-05-07 07:48 | -33.88549 | 151.21589 | 376 ft | 46 kts | 224° |
| 2026-05-07 07:48 | -33.88758 | 151.21395 | 459 ft | 44 kts | 285° |
| 2026-05-07 07:48 | -33.88402 | 151.21130 | 312 ft | 65 kts | 308° |
| 2026-05-07 07:49 | -33.88297 | 151.20771 | 317 ft | 52 kts | 271° |
| 2026-05-07 07:49 | -33.88160 | 151.20491 | 596 ft | 87 kts | 25° |
| 2026-05-07 07:49 | -33.88418 | 151.21169 | 459 ft | 88 kts | 149° |
| 2026-05-07 07:49 | -33.88851 | 151.21500 | 409 ft | 69 kts | 201° |
| 2026-05-07 07:50 | -33.89322 | 151.21520 | 405 ft | 53 kts | 196° |
| 2026-05-07 07:50 | -33.89742 | 151.21588 | 393 ft | 65 kts | 204° |
| 2026-05-07 07:50 | -33.90152 | 151.21440 | 330 ft | 65 kts | 216° |
| 2026-05-07 07:50 | -33.90548 | 151.21287 | 409 ft | 61 kts | 220° |
| 2026-05-07 07:51 | -33.90964 | 151.21069 | 342 ft | 59 kts | 218° |
| 2026-05-07 07:51 | -33.91327 | 151.20847 | 384 ft | 51 kts | 219° |
| 2026-05-07 07:51 | -33.91756 | 151.20746 | 314 ft | 69 kts | 205° |